sensor_id;sensor_type;location;lat;lon;timestamp;P1;durP1;ratioP1;P2;durP2;ratioP2
70444;SDS011;57902;49.638;11.070;2023-04-23T00:01:46;7.30;;;2.72;;
70444;SDS011;57902;49.638;11.070;2023-04-23T00:04:17;7.68;;;3.00;;
70444;SDS011;57902;49.638;11.070;2023-04-23T00:06:46;7.05;;;3.22;;
70444;SDS011;57902;49.638;11.070;2023-04-23T00:09:13;6.53;;;2.90;;
70444;SDS011;57902;49.638;11.070;2023-04-23T00:11:42;7.10;;;2.83;;
70444;SDS011;57902;49.638;11.070;2023-04-23T00:14:08;6.65;;;2.67;;
70444;SDS011;57902;49.638;11.070;2023-04-23T00:16:37;6.05;;;2.65;;
70444;SDS011;57902;49.638;11.070;2023-04-23T00:21:38;7.65;;;2.60;;
70444;SDS011;57902;49.638;11.070;2023-04-23T00:24:05;6.65;;;2.67;;
70444;SDS011;57902;49.638;11.070;2023-04-23T00:26:31;6.40;;;2.65;;
70444;SDS011;57902;49.638;11.070;2023-04-23T00:28:58;5.90;;;2.67;;
70444;SDS011;57902;49.638;11.070;2023-04-23T00:31:24;6.28;;;2.80;;
70444;SDS011;57902;49.638;11.070;2023-04-23T00:33:54;5.68;;;2.45;;
70444;SDS011;57902;49.638;11.070;2023-04-23T00:36:21;5.72;;;2.50;;
70444;SDS011;57902;49.638;11.070;2023-04-23T00:38:47;5.10;;;2.47;;
70444;SDS011;57902;49.638;11.070;2023-04-23T00:41:14;4.80;;;2.22;;
70444;SDS011;57902;49.638;11.070;2023-04-23T00:43:40;6.03;;;2.42;;
70444;SDS011;57902;49.638;11.070;2023-04-23T00:46:09;7.60;;;2.22;;
70444;SDS011;57902;49.638;11.070;2023-04-23T00:48:36;5.72;;;2.80;;
70444;SDS011;57902;49.638;11.070;2023-04-23T00:51:04;5.50;;;2.40;;
70444;SDS011;57902;49.638;11.070;2023-04-23T00:53:31;8.30;;;2.55;;
70444;SDS011;57902;49.638;11.070;2023-04-23T00:55:59;5.97;;;2.30;;
70444;SDS011;57902;49.638;11.070;2023-04-23T00:58:29;5.00;;;2.35;;
70444;SDS011;57902;49.638;11.070;2023-04-23T01:00:56;5.35;;;2.63;;
70444;SDS011;57902;49.638;11.070;2023-04-23T01:03:23;4.47;;;2.28;;
70444;SDS011;57902;49.638;11.070;2023-04-23T01:05:52;5.03;;;2.25;;
70444;SDS011;57902;49.638;11.070;2023-04-23T01:08:18;6.22;;;2.95;;
70444;SDS011;57902;49.638;11.070;2023-04-23T01:10:48;6.20;;;2.28;;
70444;SDS011;57902;49.638;11.070;2023-04-23T01:13:15;5.07;;;2.40;;
70444;SDS011;57902;49.638;11.070;2023-04-23T01:15:43;7.40;;;2.33;;
70444;SDS011;57902;49.638;11.070;2023-04-23T01:18:10;7.07;;;2.97;;
70444;SDS011;57902;49.638;11.070;2023-04-23T01:20:38;5.32;;;2.58;;
70444;SDS011;57902;49.638;11.070;2023-04-23T01:23:05;4.95;;;2.30;;
70444;SDS011;57902;49.638;11.070;2023-04-23T01:25:32;6.63;;;2.28;;
70444;SDS011;57902;49.638;11.070;2023-04-23T01:27:59;5.07;;;2.28;;
70444;SDS011;57902;49.638;11.070;2023-04-23T01:30:26;6.35;;;2.33;;
70444;SDS011;57902;49.638;11.070;2023-04-23T01:32:53;5.70;;;2.20;;
70444;SDS011;57902;49.638;11.070;2023-04-23T01:35:21;6.13;;;2.47;;
70444;SDS011;57902;49.638;11.070;2023-04-23T01:37:49;7.28;;;2.33;;
70444;SDS011;57902;49.638;11.070;2023-04-23T01:40:17;6.40;;;2.35;;
70444;SDS011;57902;49.638;11.070;2023-04-23T01:42:45;6.80;;;2.35;;
70444;SDS011;57902;49.638;11.070;2023-04-23T01:45:13;4.72;;;2.10;;
70444;SDS011;57902;49.638;11.070;2023-04-23T01:47:39;7.53;;;2.58;;
70444;SDS011;57902;49.638;11.070;2023-04-23T01:50:07;9.10;;;2.55;;
70444;SDS011;57902;49.638;11.070;2023-04-23T01:52:34;5.00;;;2.22;;
70444;SDS011;57902;49.638;11.070;2023-04-23T01:55:01;9.13;;;2.70;;
70444;SDS011;57902;49.638;11.070;2023-04-23T01:57:27;5.50;;;2.80;;
70444;SDS011;57902;49.638;11.070;2023-04-23T01:59:56;6.13;;;2.33;;
70444;SDS011;57902;49.638;11.070;2023-04-23T02:04:55;5.40;;;2.17;;
70444;SDS011;57902;49.638;11.070;2023-04-23T02:07:24;6.03;;;2.40;;
70444;SDS011;57902;49.638;11.070;2023-04-23T02:09:50;6.45;;;2.55;;
70444;SDS011;57902;49.638;11.070;2023-04-23T02:12:17;4.65;;;2.42;;
70444;SDS011;57902;49.638;11.070;2023-04-23T02:14:43;6.43;;;2.60;;
70444;SDS011;57902;49.638;11.070;2023-04-23T02:17:10;5.50;;;2.60;;
70444;SDS011;57902;49.638;11.070;2023-04-23T02:19:37;7.38;;;2.90;;
70444;SDS011;57902;49.638;11.070;2023-04-23T02:22:03;5.72;;;2.50;;
70444;SDS011;57902;49.638;11.070;2023-04-23T02:27:06;4.60;;;2.30;;
70444;SDS011;57902;49.638;11.070;2023-04-23T02:29:33;5.97;;;2.88;;
70444;SDS011;57902;49.638;11.070;2023-04-23T02:32:00;6.32;;;2.60;;
70444;SDS011;57902;49.638;11.070;2023-04-23T02:34:26;8.48;;;2.53;;
70444;SDS011;57902;49.638;11.070;2023-04-23T02:36:52;5.93;;;2.50;;
70444;SDS011;57902;49.638;11.070;2023-04-23T02:39:19;5.55;;;2.60;;
70444;SDS011;57902;49.638;11.070;2023-04-23T02:41:45;7.55;;;2.60;;
70444;SDS011;57902;49.638;11.070;2023-04-23T02:44:12;4.97;;;2.38;;
70444;SDS011;57902;49.638;11.070;2023-04-23T02:46:38;7.22;;;2.80;;
70444;SDS011;57902;49.638;11.070;2023-04-23T02:49:05;9.10;;;2.88;;
70444;SDS011;57902;49.638;11.070;2023-04-23T02:51:31;5.90;;;2.38;;
70444;SDS011;57902;49.638;11.070;2023-04-23T02:53:58;6.13;;;2.67;;
70444;SDS011;57902;49.638;11.070;2023-04-23T02:56:24;8.55;;;2.92;;
70444;SDS011;57902;49.638;11.070;2023-04-23T02:58:51;7.03;;;2.75;;
70444;SDS011;57902;49.638;11.070;2023-04-23T03:01:17;6.20;;;2.75;;
70444;SDS011;57902;49.638;11.070;2023-04-23T03:03:44;6.60;;;2.80;;
70444;SDS011;57902;49.638;11.070;2023-04-23T03:06:11;6.25;;;2.50;;
70444;SDS011;57902;49.638;11.070;2023-04-23T03:08:37;9.68;;;2.72;;
70444;SDS011;57902;49.638;11.070;2023-04-23T03:11:04;5.38;;;2.20;;
70444;SDS011;57902;49.638;11.070;2023-04-23T03:13:30;4.20;;;2.25;;
70444;SDS011;57902;49.638;11.070;2023-04-23T03:15:57;5.30;;;2.58;;
70444;SDS011;57902;49.638;11.070;2023-04-23T03:18:24;7.43;;;2.58;;
70444;SDS011;57902;49.638;11.070;2023-04-23T03:20:50;6.97;;;2.78;;
70444;SDS011;57902;49.638;11.070;2023-04-23T03:23:17;6.40;;;2.65;;
70444;SDS011;57902;49.638;11.070;2023-04-23T03:25:43;6.78;;;2.70;;
70444;SDS011;57902;49.638;11.070;2023-04-23T03:28:10;7.15;;;2.53;;
70444;SDS011;57902;49.638;11.070;2023-04-23T03:30:36;7.72;;;2.63;;
70444;SDS011;57902;49.638;11.070;2023-04-23T03:33:02;5.88;;;2.60;;
70444;SDS011;57902;49.638;11.070;2023-04-23T03:35:29;6.60;;;2.55;;
70444;SDS011;57902;49.638;11.070;2023-04-23T03:37:55;7.05;;;2.80;;
70444;SDS011;57902;49.638;11.070;2023-04-23T03:40:22;6.13;;;2.33;;
70444;SDS011;57902;49.638;11.070;2023-04-23T03:42:48;7.20;;;2.25;;
70444;SDS011;57902;49.638;11.070;2023-04-23T03:45:15;4.65;;;2.13;;
70444;SDS011;57902;49.638;11.070;2023-04-23T03:47:42;6.00;;;2.65;;
70444;SDS011;57902;49.638;11.070;2023-04-23T03:50:09;7.55;;;2.42;;
70444;SDS011;57902;49.638;11.070;2023-04-23T03:52:37;6.72;;;2.17;;
70444;SDS011;57902;49.638;11.070;2023-04-23T03:55:05;7.38;;;2.72;;
70444;SDS011;57902;49.638;11.070;2023-04-23T03:57:32;5.70;;;2.63;;
70444;SDS011;57902;49.638;11.070;2023-04-23T03:59:59;7.18;;;2.70;;
70444;SDS011;57902;49.638;11.070;2023-04-23T04:02:25;5.03;;;2.38;;
70444;SDS011;57902;49.638;11.070;2023-04-23T04:04:53;7.90;;;2.85;;
70444;SDS011;57902;49.638;11.070;2023-04-23T04:07:20;7.53;;;2.75;;
70444;SDS011;57902;49.638;11.070;2023-04-23T04:09:47;7.05;;;2.78;;
70444;SDS011;57902;49.638;11.070;2023-04-23T04:12:14;6.93;;;2.50;;
70444;SDS011;57902;49.638;11.070;2023-04-23T04:14:42;6.47;;;2.88;;
70444;SDS011;57902;49.638;11.070;2023-04-23T04:17:08;7.78;;;2.65;;
70444;SDS011;57902;49.638;11.070;2023-04-23T04:19:35;6.82;;;2.90;;
70444;SDS011;57902;49.638;11.070;2023-04-23T04:22:02;6.40;;;2.60;;
70444;SDS011;57902;49.638;11.070;2023-04-23T04:24:28;5.95;;;2.75;;
70444;SDS011;57902;49.638;11.070;2023-04-23T04:26:58;6.35;;;2.78;;
70444;SDS011;57902;49.638;11.070;2023-04-23T04:29:27;6.03;;;2.63;;
70444;SDS011;57902;49.638;11.070;2023-04-23T04:31:53;7.95;;;2.80;;
70444;SDS011;57902;49.638;11.070;2023-04-23T04:34:20;5.43;;;2.70;;
70444;SDS011;57902;49.638;11.070;2023-04-23T04:36:47;5.50;;;2.50;;
70444;SDS011;57902;49.638;11.070;2023-04-23T04:39:14;6.13;;;2.63;;
70444;SDS011;57902;49.638;11.070;2023-04-23T04:41:40;6.25;;;2.70;;
70444;SDS011;57902;49.638;11.070;2023-04-23T04:44:08;7.15;;;2.58;;
70444;SDS011;57902;49.638;11.070;2023-04-23T04:46:34;6.10;;;2.70;;
70444;SDS011;57902;49.638;11.070;2023-04-23T04:49:06;7.63;;;2.63;;
70444;SDS011;57902;49.638;11.070;2023-04-23T04:51:34;6.88;;;2.63;;
70444;SDS011;57902;49.638;11.070;2023-04-23T04:56:28;7.10;;;2.50;;
70444;SDS011;57902;49.638;11.070;2023-04-23T04:58:55;5.88;;;2.47;;
70444;SDS011;57902;49.638;11.070;2023-04-23T05:01:22;6.07;;;2.58;;
70444;SDS011;57902;49.638;11.070;2023-04-23T05:03:50;6.88;;;2.85;;
70444;SDS011;57902;49.638;11.070;2023-04-23T05:06:17;5.47;;;2.63;;
70444;SDS011;57902;49.638;11.070;2023-04-23T05:08:44;4.88;;;2.38;;
70444;SDS011;57902;49.638;11.070;2023-04-23T05:11:13;6.50;;;2.08;;
70444;SDS011;57902;49.638;11.070;2023-04-23T05:13:41;6.03;;;2.65;;
70444;SDS011;57902;49.638;11.070;2023-04-23T05:16:07;5.30;;;2.33;;
70444;SDS011;57902;49.638;11.070;2023-04-23T05:18:34;7.43;;;2.63;;
70444;SDS011;57902;49.638;11.070;2023-04-23T05:21:01;8.00;;;2.58;;
70444;SDS011;57902;49.638;11.070;2023-04-23T05:23:27;7.40;;;2.50;;
70444;SDS011;57902;49.638;11.070;2023-04-23T05:25:54;5.95;;;2.28;;
70444;SDS011;57902;49.638;11.070;2023-04-23T05:28:22;15.82;;;2.90;;
70444;SDS011;57902;49.638;11.070;2023-04-23T05:30:48;5.45;;;2.08;;
70444;SDS011;57902;49.638;11.070;2023-04-23T05:33:15;5.57;;;2.40;;
70444;SDS011;57902;49.638;11.070;2023-04-23T05:35:42;4.93;;;1.90;;
70444;SDS011;57902;49.638;11.070;2023-04-23T05:38:09;5.32;;;2.20;;
70444;SDS011;57902;49.638;11.070;2023-04-23T05:40:35;4.65;;;2.10;;
70444;SDS011;57902;49.638;11.070;2023-04-23T05:43:02;5.05;;;2.10;;
70444;SDS011;57902;49.638;11.070;2023-04-23T05:45:28;6.60;;;2.40;;
70444;SDS011;57902;49.638;11.070;2023-04-23T05:47:54;8.40;;;2.50;;
70444;SDS011;57902;49.638;11.070;2023-04-23T05:50:21;4.47;;;2.17;;
70444;SDS011;57902;49.638;11.070;2023-04-23T05:52:48;5.47;;;2.30;;
70444;SDS011;57902;49.638;11.070;2023-04-23T05:55:14;4.63;;;2.13;;
70444;SDS011;57902;49.638;11.070;2023-04-23T05:57:41;5.22;;;2.25;;
70444;SDS011;57902;49.638;11.070;2023-04-23T06:00:07;6.18;;;2.25;;
70444;SDS011;57902;49.638;11.070;2023-04-23T06:02:37;5.05;;;2.20;;
70444;SDS011;57902;49.638;11.070;2023-04-23T06:05:04;5.18;;;2.45;;
70444;SDS011;57902;49.638;11.070;2023-04-23T06:07:32;5.20;;;2.20;;
70444;SDS011;57902;49.638;11.070;2023-04-23T06:09:59;8.40;;;2.70;;
70444;SDS011;57902;49.638;11.070;2023-04-23T06:12:25;4.88;;;2.25;;
70444;SDS011;57902;49.638;11.070;2023-04-23T06:14:52;7.03;;;2.70;;
70444;SDS011;57902;49.638;11.070;2023-04-23T06:17:18;5.45;;;2.60;;
70444;SDS011;57902;49.638;11.070;2023-04-23T06:19:45;6.38;;;2.60;;
70444;SDS011;57902;49.638;11.070;2023-04-23T06:22:11;7.07;;;2.70;;
70444;SDS011;57902;49.638;11.070;2023-04-23T06:24:38;7.65;;;2.63;;
70444;SDS011;57902;49.638;11.070;2023-04-23T06:27:05;6.57;;;2.47;;
70444;SDS011;57902;49.638;11.070;2023-04-23T06:29:31;6.07;;;2.72;;
70444;SDS011;57902;49.638;11.070;2023-04-23T06:31:59;6.30;;;2.58;;
70444;SDS011;57902;49.638;11.070;2023-04-23T06:34:26;6.35;;;2.60;;
70444;SDS011;57902;49.638;11.070;2023-04-23T06:36:53;5.30;;;2.35;;
70444;SDS011;57902;49.638;11.070;2023-04-23T06:39:20;5.78;;;2.47;;
70444;SDS011;57902;49.638;11.070;2023-04-23T06:41:46;5.53;;;2.53;;
70444;SDS011;57902;49.638;11.070;2023-04-23T06:44:13;5.30;;;2.40;;
70444;SDS011;57902;49.638;11.070;2023-04-23T06:46:39;5.60;;;2.47;;
70444;SDS011;57902;49.638;11.070;2023-04-23T06:49:06;5.10;;;2.08;;
70444;SDS011;57902;49.638;11.070;2023-04-23T06:51:33;5.55;;;2.45;;
70444;SDS011;57902;49.638;11.070;2023-04-23T06:53:59;5.68;;;2.35;;
70444;SDS011;57902;49.638;11.070;2023-04-23T06:56:26;4.95;;;2.00;;
70444;SDS011;57902;49.638;11.070;2023-04-23T06:58:52;5.47;;;2.10;;
70444;SDS011;57902;49.638;11.070;2023-04-23T07:01:19;4.80;;;2.10;;
70444;SDS011;57902;49.638;11.070;2023-04-23T07:03:45;4.53;;;2.03;;
70444;SDS011;57902;49.638;11.070;2023-04-23T07:06:14;5.28;;;2.00;;
70444;SDS011;57902;49.638;11.070;2023-04-23T07:08:41;4.88;;;2.05;;
70444;SDS011;57902;49.638;11.070;2023-04-23T07:11:10;4.88;;;2.13;;
70444;SDS011;57902;49.638;11.070;2023-04-23T07:13:36;4.63;;;2.20;;
70444;SDS011;57902;49.638;11.070;2023-04-23T07:16:05;5.35;;;2.40;;
70444;SDS011;57902;49.638;11.070;2023-04-23T07:18:32;5.10;;;2.10;;
70444;SDS011;57902;49.638;11.070;2023-04-23T07:20:58;7.85;;;2.30;;
70444;SDS011;57902;49.638;11.070;2023-04-23T07:23:24;6.32;;;2.72;;
70444;SDS011;57902;49.638;11.070;2023-04-23T07:25:51;5.50;;;2.20;;
70444;SDS011;57902;49.638;11.070;2023-04-23T07:28:17;5.68;;;2.20;;
70444;SDS011;57902;49.638;11.070;2023-04-23T07:30:44;6.38;;;2.38;;
70444;SDS011;57902;49.638;11.070;2023-04-23T07:33:10;5.38;;;2.13;;
70444;SDS011;57902;49.638;11.070;2023-04-23T07:35:37;7.43;;;2.17;;
70444;SDS011;57902;49.638;11.070;2023-04-23T07:38:03;5.53;;;2.40;;
70444;SDS011;57902;49.638;11.070;2023-04-23T07:40:30;5.07;;;2.10;;
70444;SDS011;57902;49.638;11.070;2023-04-23T07:42:56;5.28;;;2.17;;
70444;SDS011;57902;49.638;11.070;2023-04-23T07:45:24;5.50;;;2.17;;
70444;SDS011;57902;49.638;11.070;2023-04-23T07:47:50;4.68;;;2.30;;
70444;SDS011;57902;49.638;11.070;2023-04-23T07:50:17;4.43;;;2.10;;
70444;SDS011;57902;49.638;11.070;2023-04-23T07:52:43;5.10;;;2.25;;
70444;SDS011;57902;49.638;11.070;2023-04-23T07:55:10;4.50;;;2.10;;
70444;SDS011;57902;49.638;11.070;2023-04-23T07:57:36;6.32;;;2.17;;
70444;SDS011;57902;49.638;11.070;2023-04-23T08:00:03;5.47;;;2.13;;
70444;SDS011;57902;49.638;11.070;2023-04-23T08:02:30;4.70;;;1.90;;
70444;SDS011;57902;49.638;11.070;2023-04-23T08:04:57;3.92;;;2.00;;
70444;SDS011;57902;49.638;11.070;2023-04-23T08:07:23;6.43;;;2.22;;
70444;SDS011;57902;49.638;11.070;2023-04-23T08:09:50;5.53;;;2.22;;
70444;SDS011;57902;49.638;11.070;2023-04-23T08:12:17;4.78;;;2.28;;
70444;SDS011;57902;49.638;11.070;2023-04-23T08:14:44;5.72;;;2.25;;
70444;SDS011;57902;49.638;11.070;2023-04-23T08:17:12;4.65;;;2.00;;
70444;SDS011;57902;49.638;11.070;2023-04-23T08:19:38;4.22;;;1.98;;
70444;SDS011;57902;49.638;11.070;2023-04-23T08:22:08;4.68;;;2.20;;
70444;SDS011;57902;49.638;11.070;2023-04-23T08:24:35;4.93;;;2.20;;
70444;SDS011;57902;49.638;11.070;2023-04-23T08:27:02;4.68;;;2.20;;
70444;SDS011;57902;49.638;11.070;2023-04-23T08:29:28;6.15;;;2.30;;
70444;SDS011;57902;49.638;11.070;2023-04-23T08:31:55;5.10;;;2.40;;
70444;SDS011;57902;49.638;11.070;2023-04-23T08:34:21;6.20;;;1.88;;
70444;SDS011;57902;49.638;11.070;2023-04-23T08:36:48;3.95;;;1.88;;
70444;SDS011;57902;49.638;11.070;2023-04-23T08:39:14;4.57;;;2.10;;
70444;SDS011;57902;49.638;11.070;2023-04-23T08:41:41;5.65;;;2.28;;
70444;SDS011;57902;49.638;11.070;2023-04-23T08:44:14;5.70;;;1.95;;
70444;SDS011;57902;49.638;11.070;2023-04-23T08:46:43;4.05;;;1.85;;
70444;SDS011;57902;49.638;11.070;2023-04-23T08:49:14;4.18;;;1.83;;
70444;SDS011;57902;49.638;11.070;2023-04-23T08:51:45;4.18;;;1.80;;
70444;SDS011;57902;49.638;11.070;2023-04-23T08:54:18;4.50;;;1.88;;
70444;SDS011;57902;49.638;11.070;2023-04-23T08:56:50;4.25;;;1.67;;
70444;SDS011;57902;49.638;11.070;2023-04-23T08:59:17;6.22;;;2.17;;
70444;SDS011;57902;49.638;11.070;2023-04-23T09:01:45;4.40;;;1.77;;
70444;SDS011;57902;49.638;11.070;2023-04-23T09:04:12;8.30;;;2.42;;
70444;SDS011;57902;49.638;11.070;2023-04-23T09:06:42;3.70;;;2.00;;
70444;SDS011;57902;49.638;11.070;2023-04-23T09:09:09;4.45;;;1.73;;
70444;SDS011;57902;49.638;11.070;2023-04-23T09:11:39;4.22;;;1.67;;
70444;SDS011;57902;49.638;11.070;2023-04-23T09:14:07;3.92;;;1.58;;
70444;SDS011;57902;49.638;11.070;2023-04-23T09:16:33;3.55;;;1.67;;
70444;SDS011;57902;49.638;11.070;2023-04-23T09:19:01;4.05;;;1.88;;
70444;SDS011;57902;49.638;11.070;2023-04-23T09:21:27;10.80;;;3.65;;
70444;SDS011;57902;49.638;11.070;2023-04-23T09:23:54;3.83;;;1.50;;
70444;SDS011;57902;49.638;11.070;2023-04-23T09:26:20;7.57;;;2.25;;
70444;SDS011;57902;49.638;11.070;2023-04-23T09:28:48;3.58;;;1.50;;
70444;SDS011;57902;49.638;11.070;2023-04-23T09:31:22;3.95;;;1.25;;
70444;SDS011;57902;49.638;11.070;2023-04-23T09:33:50;5.78;;;1.80;;
70444;SDS011;57902;49.638;11.070;2023-04-23T09:36:22;3.88;;;1.30;;
70444;SDS011;57902;49.638;11.070;2023-04-23T09:38:49;3.72;;;1.58;;
70444;SDS011;57902;49.638;11.070;2023-04-23T09:41:22;11.90;;;2.63;;
70444;SDS011;57902;49.638;11.070;2023-04-23T09:43:53;3.28;;;1.65;;
70444;SDS011;57902;49.638;11.070;2023-04-23T09:46:37;6.90;;;2.40;;
70444;SDS011;57902;49.638;11.070;2023-04-23T09:49:09;4.75;;;1.30;;
70444;SDS011;57902;49.638;11.070;2023-04-23T09:51:37;3.58;;;1.10;;
70444;SDS011;57902;49.638;11.070;2023-04-23T09:54:12;2.78;;;1.13;;
70444;SDS011;57902;49.638;11.070;2023-04-23T09:56:40;3.17;;;1.15;;
70444;SDS011;57902;49.638;11.070;2023-04-23T09:59:26;3.80;;;1.10;;
70444;SDS011;57902;49.638;11.070;2023-04-23T10:02:12;2.72;;;1.23;;
70444;SDS011;57902;49.638;11.070;2023-04-23T10:04:39;4.07;;;1.05;;
70444;SDS011;57902;49.638;11.070;2023-04-23T10:07:07;2.97;;;1.13;;
70444;SDS011;57902;49.638;11.070;2023-04-23T10:09:41;3.13;;;1.30;;
70444;SDS011;57902;49.638;11.070;2023-04-23T10:12:08;5.68;;;1.90;;
70444;SDS011;57902;49.638;11.070;2023-04-23T10:14:55;4.05;;;1.27;;
70444;SDS011;57902;49.638;11.070;2023-04-23T10:17:24;4.78;;;1.55;;
70444;SDS011;57902;49.638;11.070;2023-04-23T10:19:51;5.45;;;1.70;;
70444;SDS011;57902;49.638;11.070;2023-04-23T10:24:48;4.72;;;1.80;;
70444;SDS011;57902;49.638;11.070;2023-04-23T10:27:22;4.00;;;1.45;;
70444;SDS011;57902;49.638;11.070;2023-04-23T10:30:13;2.05;;;1.17;;
70444;SDS011;57902;49.638;11.070;2023-04-23T10:32:39;3.75;;;1.30;;
70444;SDS011;57902;49.638;11.070;2023-04-23T10:35:07;10.60;;;4.18;;
70444;SDS011;57902;49.638;11.070;2023-04-23T10:40:06;5.22;;;1.90;;
70444;SDS011;57902;49.638;11.070;2023-04-23T10:42:41;5.18;;;1.98;;
70444;SDS011;57902;49.638;11.070;2023-04-23T10:45:13;5.97;;;2.00;;
70444;SDS011;57902;49.638;11.070;2023-04-23T10:47:49;1.65;;;1.08;;
70444;SDS011;57902;49.638;11.070;2023-04-23T10:50:26;3.85;;;1.30;;
70444;SDS011;57902;49.638;11.070;2023-04-23T10:52:54;2.63;;;1.20;;
70444;SDS011;57902;49.638;11.070;2023-04-23T10:55:23;5.10;;;2.05;;
70444;SDS011;57902;49.638;11.070;2023-04-23T10:57:59;2.03;;;1.10;;
70444;SDS011;57902;49.638;11.070;2023-04-23T11:00:29;1.83;;;1.13;;
70444;SDS011;57902;49.638;11.070;2023-04-23T11:06:13;6.13;;;1.70;;
70444;SDS011;57902;49.638;11.070;2023-04-23T11:08:51;2.75;;;1.10;;
70444;SDS011;57902;49.638;11.070;2023-04-23T11:11:37;10.32;;;2.38;;
70444;SDS011;57902;49.638;11.070;2023-04-23T11:14:11;1.98;;;1.05;;
70444;SDS011;57902;49.638;11.070;2023-04-23T11:16:41;3.80;;;1.20;;
70444;SDS011;57902;49.638;11.070;2023-04-23T11:19:08;2.78;;;1.20;;
70444;SDS011;57902;49.638;11.070;2023-04-23T11:21:58;2.47;;;1.00;;
70444;SDS011;57902;49.638;11.070;2023-04-23T11:24:26;9.07;;;3.22;;
70444;SDS011;57902;49.638;11.070;2023-04-23T11:26:54;5.25;;;1.50;;
70444;SDS011;57902;49.638;11.070;2023-04-23T11:29:21;2.95;;;1.50;;
70444;SDS011;57902;49.638;11.070;2023-04-23T11:31:49;2.20;;;1.15;;
70444;SDS011;57902;49.638;11.070;2023-04-23T11:34:28;2.90;;;1.15;;
70444;SDS011;57902;49.638;11.070;2023-04-23T11:36:55;2.30;;;1.17;;
70444;SDS011;57902;49.638;11.070;2023-04-23T11:39:24;2.55;;;1.13;;
70444;SDS011;57902;49.638;11.070;2023-04-23T11:41:51;2.95;;;1.40;;
70444;SDS011;57902;49.638;11.070;2023-04-23T11:44:19;3.33;;;1.13;;
70444;SDS011;57902;49.638;11.070;2023-04-23T11:46:46;3.55;;;1.10;;
70444;SDS011;57902;49.638;11.070;2023-04-23T11:49:14;5.05;;;1.67;;
70444;SDS011;57902;49.638;11.070;2023-04-23T11:51:43;5.38;;;2.00;;
70444;SDS011;57902;49.638;11.070;2023-04-23T11:54:10;3.97;;;1.30;;
70444;SDS011;57902;49.638;11.070;2023-04-23T11:56:39;3.95;;;1.40;;
70444;SDS011;57902;49.638;11.070;2023-04-23T11:59:06;5.38;;;1.90;;
70444;SDS011;57902;49.638;11.070;2023-04-23T12:01:39;3.35;;;1.40;;
70444;SDS011;57902;49.638;11.070;2023-04-23T12:04:11;5.20;;;1.58;;
70444;SDS011;57902;49.638;11.070;2023-04-23T12:06:48;2.30;;;1.10;;
70444;SDS011;57902;49.638;11.070;2023-04-23T12:09:16;2.90;;;1.30;;
70444;SDS011;57902;49.638;11.070;2023-04-23T12:11:46;3.08;;;1.40;;
70444;SDS011;57902;49.638;11.070;2023-04-23T12:14:16;1.77;;;0.90;;
70444;SDS011;57902;49.638;11.070;2023-04-23T12:16:46;3.83;;;1.20;;
70444;SDS011;57902;49.638;11.070;2023-04-23T12:19:21;3.60;;;1.20;;
70444;SDS011;57902;49.638;11.070;2023-04-23T12:21:53;3.63;;;1.25;;
70444;SDS011;57902;49.638;11.070;2023-04-23T12:24:29;5.20;;;1.17;;
70444;SDS011;57902;49.638;11.070;2023-04-23T12:26:57;5.60;;;1.60;;
70444;SDS011;57902;49.638;11.070;2023-04-23T12:29:28;2.75;;;1.02;;
70444;SDS011;57902;49.638;11.070;2023-04-23T12:34:25;2.08;;;1.05;;
70444;SDS011;57902;49.638;11.070;2023-04-23T12:36:53;3.72;;;1.20;;
70444;SDS011;57902;49.638;11.070;2023-04-23T12:41:59;3.17;;;1.30;;
70444;SDS011;57902;49.638;11.070;2023-04-23T12:44:30;3.45;;;1.30;;
70444;SDS011;57902;49.638;11.070;2023-04-23T12:46:57;4.60;;;1.60;;
70444;SDS011;57902;49.638;11.070;2023-04-23T12:49:25;4.68;;;1.30;;
70444;SDS011;57902;49.638;11.070;2023-04-23T12:51:53;5.53;;;1.83;;
70444;SDS011;57902;49.638;11.070;2023-04-23T12:54:23;5.80;;;2.00;;
70444;SDS011;57902;49.638;11.070;2023-04-23T12:56:50;3.22;;;1.30;;
70444;SDS011;57902;49.638;11.070;2023-04-23T12:59:20;3.92;;;1.20;;
70444;SDS011;57902;49.638;11.070;2023-04-23T13:01:47;3.10;;;1.20;;
70444;SDS011;57902;49.638;11.070;2023-04-23T13:04:15;2.83;;;1.08;;
70444;SDS011;57902;49.638;11.070;2023-04-23T13:06:41;2.58;;;1.25;;
70444;SDS011;57902;49.638;11.070;2023-04-23T13:09:11;5.30;;;1.30;;
70444;SDS011;57902;49.638;11.070;2023-04-23T13:11:38;2.65;;;1.00;;
70444;SDS011;57902;49.638;11.070;2023-04-23T13:14:05;4.75;;;1.42;;
70444;SDS011;57902;49.638;11.070;2023-04-23T13:16:32;5.25;;;1.20;;
70444;SDS011;57902;49.638;11.070;2023-04-23T13:19:05;12.35;;;3.25;;
70444;SDS011;57902;49.638;11.070;2023-04-23T13:21:32;2.58;;;0.93;;
70444;SDS011;57902;49.638;11.070;2023-04-23T13:23:58;1.73;;;0.93;;
70444;SDS011;57902;49.638;11.070;2023-04-23T13:26:25;1.80;;;1.05;;
70444;SDS011;57902;49.638;11.070;2023-04-23T13:28:52;4.22;;;1.45;;
70444;SDS011;57902;49.638;11.070;2023-04-23T13:31:18;1.73;;;1.10;;
70444;SDS011;57902;49.638;11.070;2023-04-23T13:33:45;4.45;;;1.45;;
70444;SDS011;57902;49.638;11.070;2023-04-23T13:36:11;3.08;;;1.00;;
70444;SDS011;57902;49.638;11.070;2023-04-23T13:38:38;5.65;;;1.60;;
70444;SDS011;57902;49.638;11.070;2023-04-23T13:41:04;1.83;;;0.82;;
70444;SDS011;57902;49.638;11.070;2023-04-23T13:43:31;3.75;;;1.30;;
70444;SDS011;57902;49.638;11.070;2023-04-23T13:45:57;2.53;;;0.90;;
70444;SDS011;57902;49.638;11.070;2023-04-23T13:48:26;3.25;;;1.48;;
70444;SDS011;57902;49.638;11.070;2023-04-23T13:50:56;3.15;;;1.10;;
70444;SDS011;57902;49.638;11.070;2023-04-23T13:53:24;3.10;;;1.10;;
70444;SDS011;57902;49.638;11.070;2023-04-23T13:55:51;1.90;;;1.00;;
70444;SDS011;57902;49.638;11.070;2023-04-23T13:58:18;3.20;;;0.93;;
70444;SDS011;57902;49.638;11.070;2023-04-23T14:00:45;2.42;;;1.13;;
70444;SDS011;57902;49.638;11.070;2023-04-23T14:03:11;3.20;;;0.90;;
70444;SDS011;57902;49.638;11.070;2023-04-23T14:05:38;2.88;;;1.10;;
70444;SDS011;57902;49.638;11.070;2023-04-23T14:08:04;2.75;;;0.90;;
70444;SDS011;57902;49.638;11.070;2023-04-23T14:10:31;2.67;;;1.00;;
70444;SDS011;57902;49.638;11.070;2023-04-23T14:12:58;1.73;;;0.90;;
70444;SDS011;57902;49.638;11.070;2023-04-23T14:15:25;5.38;;;1.10;;
70444;SDS011;57902;49.638;11.070;2023-04-23T14:17:52;1.63;;;0.98;;
70444;SDS011;57902;49.638;11.070;2023-04-23T14:20:18;3.45;;;0.98;;
70444;SDS011;57902;49.638;11.070;2023-04-23T14:22:49;2.05;;;0.95;;
70444;SDS011;57902;49.638;11.070;2023-04-23T14:25:24;1.65;;;0.90;;
70444;SDS011;57902;49.638;11.070;2023-04-23T14:27:56;1.13;;;0.70;;
70444;SDS011;57902;49.638;11.070;2023-04-23T14:30:26;1.42;;;0.80;;
70444;SDS011;57902;49.638;11.070;2023-04-23T14:32:54;2.20;;;1.00;;
70444;SDS011;57902;49.638;11.070;2023-04-23T14:35:22;1.27;;;0.80;;
70444;SDS011;57902;49.638;11.070;2023-04-23T14:38:06;2.88;;;0.82;;
70444;SDS011;57902;49.638;11.070;2023-04-23T14:40:33;1.25;;;0.70;;
70444;SDS011;57902;49.638;11.070;2023-04-23T14:42:59;1.52;;;0.88;;
70444;SDS011;57902;49.638;11.070;2023-04-23T14:45:40;2.72;;;0.80;;
70444;SDS011;57902;49.638;11.070;2023-04-23T14:48:06;1.25;;;0.75;;
70444;SDS011;57902;49.638;11.070;2023-04-23T14:50:33;2.20;;;0.90;;
70444;SDS011;57902;49.638;11.070;2023-04-23T14:52:59;2.58;;;0.90;;
70444;SDS011;57902;49.638;11.070;2023-04-23T14:55:28;1.92;;;0.85;;
70444;SDS011;57902;49.638;11.070;2023-04-23T14:57:54;1.50;;;0.80;;
70444;SDS011;57902;49.638;11.070;2023-04-23T15:00:21;13.57;;;5.38;;
70444;SDS011;57902;49.638;11.070;2023-04-23T15:02:47;13.40;;;5.20;;